Time;durP1;ratioP1;P1;durP2;ratioP2;P2;SDS_P1;SDS_P2;PMS_P1;PMS_P2;Temp;Humidity;BMP_temperature;BMP_pressure;BME280_temperature;BME280_humidity;BME280_pressure;Samples;Min_cycle;Max_cycle;Signal;HPM_P1;HPM_P2
2022/01/29 00:00:31;;;;;;;0.80;0.40;;;;;;;0.79;72.12;101325.13;4486198;31;20143;-71
2022/01/29 00:02:57;;;;;;;2.42;0.30;;;;;;;0.74;71.85;101319.72;4486278;31;20148;-71
2022/01/29 00:05:25;;;;;;;1.45;0.93;;;;;;;0.71;72.00;101315.31;4486120;31;20119;-71
2022/01/29 00:07:52;;;;;;;2.45;0.55;;;;;;;0.71;72.03;101315.31;4486216;31;20096;-71
2022/01/29 00:10:19;;;;;;;0.80;0.30;;;;;;;0.66;72.16;101314.22;4486060;31;20156;-71
2022/01/29 00:12:47;;;;;;;2.58;0.47;;;;;;;0.67;71.99;101315.09;4486149;31;20088;-71
2022/01/29 00:15:14;;;;;;;2.87;0.65;;;;;;;0.77;70.91;101327.66;4486141;31;20139;-71
2022/01/29 00:17:41;;;;;;;0.35;0.22;;;;;;;0.85;70.00;101325.37;4486045;31;20528;-71
2022/01/29 00:20:09;;;;;;;3.20;0.43;;;;;;;0.83;69.82;101325.31;4486057;31;20361;-71
2022/01/29 00:22:36;;;;;;;5.78;0.40;;;;;;;0.84;70.19;101326.19;4486002;31;20114;-71
2022/01/29 00:25:04;;;;;;;3.00;0.35;;;;;;;0.78;70.68;101334.63;4485997;31;20168;-71
2022/01/29 00:27:34;;;;;;;2.40;0.60;;;;;;;0.78;70.91;101334.63;4486076;31;20096;-71
2022/01/29 00:30:09;;;;;;;0.15;0.13;;;;;;;0.76;71.31;101337.97;4486068;31;20080;-71
2022/01/29 00:32:36;;;;;;;1.55;0.52;;;;;;;0.66;72.02;101328.91;4485943;31;20075;-71
2022/01/29 00:35:05;;;;;;;1.60;0.40;;;;;;;0.60;72.70;101323.44;4485885;31;20093;-71
2022/01/29 00:37:32;;;;;;;1.45;0.43;;;;;;;0.58;72.91;101333.75;4485996;31;20515;-71
2022/01/29 00:40:00;;;;;;;3.00;0.50;;;;;;;0.59;73.62;101345.00;4486096;31;20591;-71
2022/01/29 00:42:27;;;;;;;1.35;0.30;;;;;;;0.51;74.41;101334.31;4486092;31;20118;-71
2022/01/29 00:44:54;;;;;;;0.37;0.32;;;;;;;0.47;75.34;101337.59;4485892;31;20120;-71
2022/01/29 00:47:22;;;;;;;0.98;0.50;;;;;;;0.56;75.47;101331.91;4485871;31;20096;-71
2022/01/29 00:49:49;;;;;;;0.30;0.10;;;;;;;0.49;75.84;101338.53;4485591;31;20084;-71
2022/01/29 00:52:16;;;;;;;1.05;0.62;;;;;;;0.46;76.24;101334.13;4485185;31;20092;-71
2022/01/29 00:54:45;;;;;;;1.08;0.40;;;;;;;0.45;76.23;101334.91;4485802;31;20163;-71
2022/01/29 00:57:12;;;;;;;1.55;0.40;;;;;;;0.52;76.17;101348.16;4485773;31;20593;-71
2022/01/29 00:59:39;;;;;;;2.40;0.88;;;;;;;0.50;76.62;101349.81;4485755;31;20103;-71
2022/01/29 01:02:09;;;;;;;2.30;0.80;;;;;;;0.52;77.05;101355.94;4485702;31;20432;-71
2022/01/29 01:04:38;;;;;;;2.08;0.45;;;;;;;0.43;77.78;101346.06;4485771;31;20089;-71
2022/01/29 01:07:08;;;;;;;5.43;1.12;;;;;;;0.42;78.33;101350.34;4485788;31;20138;-71
2022/01/29 01:09:37;;;;;;;2.42;0.98;;;;;;;0.42;78.58;101359.81;4485744;31;20452;-71
2022/01/29 01:12:05;;;;;;;2.60;0.47;;;;;;;0.37;79.00;101353.56;4485733;31;20530;-71
2022/01/29 01:14:35;;;;;;;3.70;1.02;;;;;;;0.38;79.00;101374.34;4485621;31;20448;-71
2022/01/29 01:17:04;;;;;;;4.43;1.17;;;;;;;0.31;79.12;101366.22;4485616;31;20104;-71
2022/01/29 01:19:32;;;;;;;14.32;1.50;;;;;;;0.32;79.02;101368.91;4485646;31;20084;-71
2022/01/29 01:21:59;;;;;;;1.10;0.85;;;;;;;0.25;79.36;101374.62;4485570;31;20137;-71
2022/01/29 01:24:26;;;;;;;1.52;0.57;;;;;;;0.26;79.44;101380.72;4485580;31;20454;-71
2022/01/29 01:26:53;;;;;;;4.70;0.68;;;;;;;0.24;79.60;101384.09;4485617;31;20127;-71
2022/01/29 01:29:21;;;;;;;0.88;0.60;;;;;;;0.20;79.77;101374.41;4485563;31;20111;-71
2022/01/29 01:31:48;;;;;;;1.83;0.80;;;;;;;0.18;79.78;101376.06;4485446;31;20091;-71
2022/01/29 01:34:19;;;;;;;1.75;0.88;;;;;;;0.18;79.88;101370.00;4485335;31;20119;-71
2022/01/29 01:36:52;;;;;;;1.48;0.77;;;;;;;0.17;79.92;101363.91;4485609;31;20162;-71
2022/01/29 01:39:24;;;;;;;1.15;0.32;;;;;;;0.13;80.08;101363.69;4485630;31;20080;-71
2022/01/29 01:42:12;;;;;;;1.95;1.12;;;;;;;0.13;79.97;101374.06;4485394;31;20534;-71
2022/01/29 01:44:46;;;;;;;0.77;0.47;;;;;;;0.08;80.28;101366.09;4485414;31;20135;-71
2022/01/29 01:47:16;;;;;;;2.78;0.73;;;;;;;0.06;80.28;101362.53;4485460;31;20088;-71
2022/01/29 01:49:45;;;;;;;0.62;0.60;;;;;;;0.04;80.23;101363.28;4485399;31;20072;-71
2022/01/29 01:52:13;;;;;;;4.22;1.10;;;;;;;0.06;79.39;101364.22;4485358;31;20083;-71
2022/01/29 01:54:42;;;;;;;5.30;0.50;;;;;;;0.06;78.80;101385.84;4485366;31;20091;-71
2022/01/29 01:57:10;;;;;;;5.12;0.93;;;;;;;0.09;78.58;101379.91;4485501;31;20676;-71
2022/01/29 01:59:37;;;;;;;1.05;0.80;;;;;;;0.11;78.13;101394.72;4485457;31;20114;-71
2022/01/29 02:02:04;;;;;;;1.23;0.82;;;;;;;0.14;77.98;101401.75;4485055;31;20084;-71
2022/01/29 02:04:33;;;;;;;3.42;0.88;;;;;;;0.16;77.71;101381.97;4485164;31;20559;-71
2022/01/29 02:07:01;;;;;;;1.80;0.73;;;;;;;0.12;77.43;101393.91;4485122;31;20092;-71
2022/01/29 02:09:30;;;;;;;0.62;0.55;;;;;;;0.12;77.34;101388.72;4485170;31;20144;-71
2022/01/29 02:12:02;;;;;;;7.85;0.90;;;;;;;0.13;76.92;101387.00;4485025;31;20118;-71
2022/01/29 02:14:32;;;;;;;4.82;1.20;;;;;;;0.10;76.68;101372.19;4485116;31;20096;-71
2022/01/29 02:17:01;;;;;;;0.93;0.50;;;;;;;0.05;76.08;101362.47;4485082;31;20439;-71
2022/01/29 02:19:28;;;;;;;2.85;0.60;;;;;;;0.14;74.41;101355.09;4485092;31;20084;-71
2022/01/29 02:21:57;;;;;;;3.85;0.22;;;;;;;0.22;73.30;101357.22;4485010;31;20099;-71
2022/01/29 02:24:25;;;;;;;2.37;0.85;;;;;;;0.26;72.73;101353.06;4484845;31;20096;-71
2022/01/29 02:26:53;;;;;;;1.45;0.60;;;;;;;0.28;72.50;101359.19;4484885;31;20171;-71
2022/01/29 02:29:21;;;;;;;4.37;1.08;;;;;;;0.25;72.50;101356.50;4485046;31;20118;-71
2022/01/29 02:31:57;;;;;;;1.95;0.60;;;;;;;0.23;72.13;101352.94;4484690;31;20179;-71
2022/01/29 02:34:25;;;;;;;0.32;0.32;;;;;;;0.42;70.74;101358.09;4484547;31;20104;-71
2022/01/29 02:36:53;;;;;;;4.32;0.75;;;;;;;0.43;70.37;101346.94;4484664;31;20513;-71
2022/01/29 02:39:21;;;;;;;3.25;0.62;;;;;;;0.55;68.21;101351.78;4484824;31;20093;-71
2022/01/29 02:41:49;;;;;;;1.65;0.75;;;;;;;0.50;68.76;101355.87;4484794;31;20201;-71
2022/01/29 02:44:21;;;;;;;3.50;1.25;;;;;;;0.54;68.71;101355.19;4484811;31;20152;-71
2022/01/29 02:49:19;;;;;;;3.22;0.98;;;;;;;0.49;69.89;101359.28;4484757;31;20491;-71
2022/01/29 02:51:51;;;;;;;0.77;0.60;;;;;;;0.34;69.95;101362.06;4484445;31;20084;-71
2022/01/29 02:54:20;;;;;;;5.10;1.27;;;;;;;0.43;69.62;101359.91;4484710;31;20172;-71
2022/01/29 02:56:47;;;;;;;3.25;1.12;;;;;;;0.50;69.39;101367.97;4484519;31;20458;-71
2022/01/29 02:59:15;;;;;;;0.52;0.43;;;;;;;0.25;70.19;101364.28;4484366;31;20496;-71
2022/01/29 03:01:43;;;;;;;1.40;0.77;;;;;;;0.23;70.32;101366.78;4484528;31;20520;-71
2022/01/29 03:04:10;;;;;;;2.90;0.60;;;;;;;0.29;69.64;101358.41;4484435;31;20127;-71
2022/01/29 03:06:37;;;;;;;0.75;0.55;;;;;;;0.36;69.24;101357.84;4484249;31;20092;-71
2022/01/29 03:09:05;;;;;;;1.23;0.40;;;;;;;0.36;69.16;101373.41;4484145;31;20113;-71
2022/01/29 03:11:33;;;;;;;0.82;0.32;;;;;;;0.31;69.45;101377.47;4484138;31;20115;-71
2022/01/29 03:14:00;;;;;;;1.45;0.52;;;;;;;0.34;68.83;101388.00;4484825;31;20561;-71
2022/01/29 03:16:28;;;;;;;0.57;0.40;;;;;;;0.42;68.11;101391.81;4486494;31;20172;-71
2022/01/29 03:18:56;;;;;;;2.90;0.75;;;;;;;0.41;68.06;101395.22;4486589;31;20092;-71
2022/01/29 03:21:23;;;;;;;17.10;0.73;;;;;;;0.37;68.39;101392.44;4486681;31;20447;-71
2022/01/29 03:23:50;;;;;;;1.77;0.50;;;;;;;0.37;68.37;101395.03;4486561;31;20088;-71
2022/01/29 03:26:17;;;;;;;1.87;0.65;;;;;;;0.28;68.14;101403.25;4486572;31;20146;-71
2022/01/29 03:28:44;;;;;;;2.08;0.90;;;;;;;0.25;68.09;101379.81;4486644;31;20084;-71
2022/01/29 03:31:11;;;;;;;1.05;0.43;;;;;;;0.21;67.92;101386.56;4471918;31;20156;-71
2022/01/29 03:33:39;;;;;;;3.42;0.62;;;;;;;0.13;67.90;101395.69;4486199;31;20089;-71
2022/01/29 03:36:06;;;;;;;1.55;0.60;;;;;;;0.36;66.31;101390.69;4486339;31;20538;-71
2022/01/29 03:38:33;;;;;;;1.30;0.40;;;;;;;0.49;65.03;101398.16;4486290;31;20191;-71
2022/01/29 03:41:01;;;;;;;2.35;0.50;;;;;;;0.61;64.20;101405.63;4486625;31;20164;-71
2022/01/29 03:43:33;;;;;;;4.10;0.60;;;;;;;0.53;64.90;101409.56;4486293;31;20100;-71
2022/01/29 03:46:00;;;;;;;1.62;0.60;;;;;;;0.59;64.09;101404.66;4486430;31;20151;-71
2022/01/29 03:48:27;;;;;;;6.55;0.95;;;;;;;0.57;63.21;101404.59;4486308;31;20465;-71
2022/01/29 03:50:54;;;;;;;0.68;0.50;;;;;;;0.48;63.83;101410.25;4486297;31;20122;-71
2022/01/29 03:53:22;;;;;;;2.90;0.60;;;;;;;0.48;63.97;101412.84;4486221;31;20571;-71
2022/01/29 03:55:49;;;;;;;6.75;0.90;;;;;;;0.53;63.77;101409.56;4486333;31;20478;-71
2022/01/29 03:58:16;;;;;;;1.42;0.82;;;;;;;0.53;63.64;101419.94;4486282;31;20500;-71
2022/01/29 04:00:43;;;;;;;3.03;0.93;;;;;;;0.58;62.97;101426.25;4486172;31;20463;-71
2022/01/29 04:03:11;;;;;;;0.55;0.50;;;;;;;0.53;63.26;101419.94;4486134;31;20831;-71
2022/01/29 04:05:38;;;;;;;5.03;1.30;;;;;;;0.61;62.75;101440.22;4486209;31;20546;-71
2022/01/29 04:08:13;;;;;;;3.90;1.55;;;;;;;0.60;63.01;101433.28;4486163;31;20472;-71
2022/01/29 04:10:41;;;;;;;3.30;0.60;;;;;;;0.59;62.73;101440.97;4486051;31;20584;-71
2022/01/29 04:13:13;;;;;;;4.75;0.68;;;;;;;0.62;62.56;101435.94;4486378;31;20157;-71
2022/01/29 04:15:40;;;;;;;4.12;0.85;;;;;;;0.60;62.98;101437.56;4486068;31;20100;-71
2022/01/29 04:18:08;;;;;;;3.03;0.70;;;;;;;0.56;62.85;101435.62;4486161;31;20084;-71
2022/01/29 04:20:35;;;;;;;1.08;0.40;;;;;;;0.66;62.53;101425.75;4486091;31;20095;-71
2022/01/29 04:23:06;;;;;;;10.73;1.08;;;;;;;0.75;62.12;101430.47;4486085;31;20164;-71
2022/01/29 04:25:33;;;;;;;7.40;0.90;;;;;;;0.84;62.07;101427.38;4484873;31;20108;-71
2022/01/29 04:28:01;;;;;;;0.95;0.68;;;;;;;0.80;62.30;101421.19;4486246;31;20088;-71
2022/01/29 04:30:31;;;;;;;2.83;0.77;;;;;;;0.76;62.75;101423.56;4485907;31;20091;-71
2022/01/29 04:33:15;;;;;;;15.45;1.35;;;;;;;0.83;62.25;101399.69;4485705;31;20565;-71
2022/01/29 04:35:42;;;;;;;5.43;0.75;;;;;;;0.75;62.81;101412.31;4486088;31;20084;-71
2022/01/29 04:38:10;;;;;;;0.85;0.55;;;;;;;0.81;62.65;101424.66;4485909;31;20114;-71
2022/01/29 04:40:37;;;;;;;1.20;0.73;;;;;;;0.78;62.51;101422.84;4485942;31;20782;-71
2022/01/29 04:43:06;;;;;;;0.65;0.55;;;;;;;0.78;62.64;101429.69;4486186;31;20149;-71
2022/01/29 04:45:33;;;;;;;7.05;1.23;;;;;;;0.83;62.61;101433.41;4485847;31;20108;-71
2022/01/29 04:48:01;;;;;;;2.92;0.93;;;;;;;0.79;63.02;101439.28;4485883;31;20115;-71
2022/01/29 04:50:28;;;;;;;0.95;0.93;;;;;;;0.69;63.57;101433.66;4485782;31;20171;-71
2022/01/29 04:52:55;;;;;;;7.72;1.23;;;;;;;0.70;63.69;101447.53;4485955;31;20805;-71
2022/01/29 04:55:23;;;;;;;0.77;0.40;;;;;;;0.68;63.99;101449.19;4486052;31;20187;-71
2022/01/29 04:57:50;;;;;;;1.45;0.80;;;;;;;0.67;64.16;101449.97;4485996;31;20113;-71
2022/01/29 05:00:21;;;;;;;5.32;0.93;;;;;;;0.79;63.81;101445.34;4486015;31;20083;-71
2022/01/29 05:02:49;;;;;;;3.05;0.93;;;;;;;0.62;64.59;101449.78;4485959;31;20187;-71
2022/01/29 05:05:17;;;;;;;1.10;0.60;;;;;;;0.72;64.11;101458.88;4485955;31;20123;-71
2022/01/29 05:07:44;;;;;;;2.05;0.90;;;;;;;0.69;64.35;101459.59;4486058;31;20077;-71
2022/01/29 05:10:12;;;;;;;3.55;1.60;;;;;;;0.69;64.53;101463.91;4485931;31;20172;-71
2022/01/29 05:12:52;;;;;;;8.00;0.90;;;;;;;0.87;63.46;101469.91;4485779;31;20495;-71
2022/01/29 05:28:56;;;;;;;12.88;1.48;;;;;;;0.70;64.33;101470.87;4485627;31;20118;-71
2022/01/29 05:31:23;;;;;;;2.47;0.80;;;;;;;0.75;64.37;101473.69;4485674;31;20092;-71
2022/01/29 05:33:50;;;;;;;5.47;1.00;;;;;;;0.73;64.64;101473.59;4485403;31;20123;-71
2022/01/29 05:36:17;;;;;;;2.42;1.60;;;;;;;0.77;64.57;101470.31;4485261;31;20091;-71
2022/01/29 05:38:44;;;;;;;6.05;0.98;;;;;;;0.74;64.68;101474.50;4485621;31;20085;-71
2022/01/29 05:41:12;;;;;;;2.87;1.37;;;;;;;0.76;64.81;101476.34;4485595;31;20092;-71
2022/01/29 05:43:40;;;;;;;3.30;1.17;;;;;;;0.69;65.32;101490.75;4485565;31;20096;-71
2022/01/29 05:46:07;;;;;;;3.78;1.12;;;;;;;0.48;66.21;101493.22;4485642;31;20160;-72
2022/01/29 05:48:34;;;;;;;5.40;1.40;;;;;;;0.50;66.36;101495.03;4470979;31;20104;-71
2022/01/29 05:51:01;;;;;;;7.15;2.03;;;;;;;0.62;66.26;101487.81;4485467;31;20100;-71
2022/01/29 05:53:28;;;;;;;5.28;1.65;;;;;;;0.39;67.26;101498.00;4485530;31;20611;-71
2022/01/29 05:55:55;;;;;;;2.72;1.30;;;;;;;0.44;67.23;101499.09;4485629;31;20097;-71
2022/01/29 05:58:23;;;;;;;2.28;1.30;;;;;;;0.41;67.34;101503.25;4485674;31;20075;-71
2022/01/29 06:00:50;;;;;;;6.82;1.85;;;;;;;0.20;68.19;101493.63;4485403;31;20114;-71
2022/01/29 06:03:19;;;;;;;1.90;1.35;;;;;;;0.40;67.73;101504.06;4485447;31;20874;-71
2022/01/29 06:05:46;;;;;;;3.03;1.30;;;;;;;0.41;67.55;101500.66;4485336;31;20443;-71
2022/01/29 06:08:13;;;;;;;4.45;1.15;;;;;;;0.35;67.62;101506.44;4485418;31;20112;-71
2022/01/29 06:10:41;;;;;;;2.17;1.02;;;;;;;0.35;67.57;101503.84;4485204;31;20559;-71
2022/01/29 06:13:10;;;;;;;3.25;1.60;;;;;;;-0.06;69.15;101512.22;4485215;31;20084;-71
2022/01/29 06:15:42;;;;;;;5.95;2.20;;;;;;;-0.23;70.06;101513.97;4485118;31;20084;-71
2022/01/29 06:18:18;;;;;;;4.90;1.45;;;;;;;-0.28;70.17;101520.66;4485004;31;20542;-71
2022/01/29 06:20:51;;;;;;;9.18;1.62;;;;;;;-0.33;70.33;101527.28;4485074;31;20111;-71
2022/01/29 06:23:24;;;;;;;7.57;2.25;;;;;;;-0.40;70.64;101522.59;4484967;31;20088;-71
2022/01/29 06:25:51;;;;;;;6.18;1.90;;;;;;;-0.35;70.26;101534.97;4484995;31;20123;-71
2022/01/29 06:28:18;;;;;;;4.43;1.80;;;;;;;-0.35;70.45;101518.56;4484890;31;20106;-71
2022/01/29 06:30:46;;;;;;;6.97;2.35;;;;;;;-0.35;70.65;101521.16;4484964;31;20493;-71
2022/01/29 06:33:13;;;;;;;7.00;2.40;;;;;;;-0.34;70.64;101522.91;4484601;31;20469;-71
2022/01/29 06:35:43;;;;;;;6.07;1.80;;;;;;;-0.28;70.33;101526.72;4484867;31;20522;-71
2022/01/29 06:38:13;;;;;;;4.25;1.80;;;;;;;-0.31;70.51;101515.31;4484979;31;20754;-71
2022/01/29 06:40:41;;;;;;;9.93;2.10;;;;;;;-0.19;69.96;101520.19;4484657;31;20119;-71
2022/01/29 06:43:09;;;;;;;7.82;1.80;;;;;;;-0.11;69.64;101514.56;4484644;31;20116;-71
2022/01/29 06:45:38;;;;;;;3.28;1.77;;;;;;;0.02;69.43;101521.25;4484590;31;20092;-71
2022/01/29 06:48:06;;;;;;;8.43;2.37;;;;;;;0.10;69.30;101506.06;4484686;31;20076;-71
2022/01/29 06:50:34;;;;;;;12.60;3.22;;;;;;;0.19;69.21;101510.00;4486438;31;20114;-71
2022/01/29 06:53:02;;;;;;;17.52;6.35;;;;;;;0.45;68.69;101515.53;4486517;31;20084;-71
2022/01/29 06:55:30;;;;;;;9.77;3.70;;;;;;;0.54;68.26;101515.97;4486546;31;20167;-71
2022/01/29 06:57:57;;;;;;;10.30;3.53;;;;;;;0.63;68.25;101523.28;4486629;31;20080;-71
2022/01/29 07:00:44;;;;;;;6.40;2.40;;;;;;;0.74;68.02;101529.84;4474371;31;20080;-73
2022/01/29 07:03:12;;;;;;;12.50;3.03;;;;;;;0.85;68.36;101530.34;4486642;31;20369;-72
2022/01/29 07:05:39;;;;;;;9.75;2.37;;;;;;;0.75;69.57;101535.97;4486610;31;20133;-73
2022/01/29 07:08:07;;;;;;;13.57;3.37;;;;;;;0.85;69.62;101535.53;4486745;31;20134;-73
2022/01/29 07:10:37;;;;;;;8.73;2.72;;;;;;;0.89;70.08;101529.69;4486635;31;20084;-72
2022/01/29 07:13:05;;;;;;;9.15;2.35;;;;;;;1.12;69.52;101533.31;4486358;31;20104;-71
2022/01/29 07:15:37;;;;;;;5.30;2.22;;;;;;;1.37;68.18;101525.78;4486515;31;20125;-71
2022/01/29 07:18:04;;;;;;;13.48;2.17;;;;;;;1.56;66.83;101537.88;4486479;31;20421;-71
2022/01/29 07:20:32;;;;;;;7.72;1.67;;;;;;;1.55;66.45;101535.19;4486417;31;20091;-71
2022/01/29 07:22:59;;;;;;;3.97;1.98;;;;;;;1.61;66.16;101533.75;4486369;31;20524;-71
2022/01/29 07:25:26;;;;;;;7.35;1.83;;;;;;;1.79;65.80;101546.63;4486479;31;20103;-71
2022/01/29 07:27:53;;;;;;;4.25;1.40;;;;;;;1.63;66.34;101544.22;4486442;31;20827;-71
2022/01/29 07:30:21;;;;;;;5.53;2.03;;;;;;;1.83;65.89;101542.44;4486403;31;20122;-71
2022/01/29 07:32:48;;;;;;;3.95;1.50;;;;;;;1.63;66.63;101547.69;4486265;31;20092;-71
2022/01/29 07:35:15;;;;;;;8.27;2.62;;;;;;;1.58;67.44;101541.41;4486280;31;20569;-71
2022/01/29 07:37:42;;;;;;;7.93;2.03;;;;;;;1.53;67.87;101547.22;4486453;31;20144;-71
2022/01/29 07:40:10;;;;;;;7.78;1.80;;;;;;;1.61;67.50;101551.94;4486292;31;20104;-71
2022/01/29 07:42:37;;;;;;;4.28;2.22;;;;;;;1.61;67.60;101553.62;4486091;31;20486;-71
2022/01/29 07:45:06;;;;;;;15.77;2.58;;;;;;;1.78;67.29;101550.06;4486288;31;20203;-71
2022/01/29 07:47:33;;;;;;;12.48;2.75;;;;;;;2.00;66.42;101541.44;4486382;31;20084;-71
2022/01/29 07:50:00;;;;;;;9.98;3.17;;;;;;;2.10;66.22;101543.59;4486171;31;20100;-71
2022/01/29 07:52:28;;;;;;;8.05;1.92;;;;;;;2.33;65.40;101552.34;4471246;31;20151;-71
2022/01/29 07:54:56;;;;;;;13.10;3.10;;;;;;;2.25;64.88;101550.25;4486294;31;20112;-71
2022/01/29 07:57:23;;;;;;;5.82;1.55;;;;;;;2.24;65.37;101549.34;4486227;31;20171;-71
2022/01/29 07:59:50;;;;;;;14.07;5.87;;;;;;;2.41;64.64;101543.97;4485824;31;20569;-71
2022/01/29 08:02:17;;;;;;;17.27;6.90;;;;;;;2.49;64.91;101550.34;4486025;31;20123;-71
2022/01/29 08:04:45;;;;;;;8.00;4.47;;;;;;;2.55;64.99;101561.00;4486238;31;20092;-71
2022/01/29 08:07:12;;;;;;;10.63;4.43;;;;;;;2.69;64.10;101546.81;4486135;31;20076;-71
2022/01/29 08:09:39;;;;;;;11.30;2.95;;;;;;;2.67;63.65;101558.87;4486099;31;20176;-71
2022/01/29 08:12:07;;;;;;;11.25;4.10;;;;;;;2.72;64.32;101559.03;4486043;31;20100;-71
2022/01/29 08:14:34;;;;;;;19.00;2.75;;;;;;;2.68;63.57;101552.81;4486101;31;20452;-71
2022/01/29 08:17:01;;;;;;;8.68;2.25;;;;;;;2.95;62.49;101557.31;4486116;31;20084;-71
2022/01/29 08:19:29;;;;;;;7.12;2.60;;;;;;;2.69;61.74;101558.94;4486053;31;20432;-71
2022/01/29 08:21:56;;;;;;;8.98;2.20;;;;;;;2.79;61.40;101550.62;4485942;31;20502;-71
2022/01/29 08:24:23;;;;;;;7.20;2.37;;;;;;;2.67;60.77;101553.66;4486339;31;20617;-71
2022/01/29 08:26:51;;;;;;;13.82;2.92;;;;;;;2.75;60.36;101547.03;4485983;31;20081;-71
2022/01/29 08:29:18;;;;;;;10.25;2.92;;;;;;;2.71;60.29;101555.53;4486123;31;20108;-71
2022/01/29 08:31:45;;;;;;;13.30;2.97;;;;;;;2.85;60.41;101559.56;4485850;31;20096;-71
2022/01/29 08:34:13;;;;;;;6.47;1.75;;;;;;;2.79;60.15;101561.97;4485739;31;20183;-71
2022/01/29 08:36:40;;;;;;;7.82;2.17;;;;;;;2.89;60.35;101550.16;4485902;31;20127;-71
2022/01/29 08:39:07;;;;;;;11.68;4.60;;;;;;;2.98;59.82;101554.84;4486099;31;20463;-71
2022/01/29 08:41:35;;;;;;;18.15;5.40;;;;;;;3.25;57.74;101555.87;4486039;31;20134;-71
2022/01/29 08:44:02;;;;;;;19.12;6.07;;;;;;;3.03;57.14;101545.47;4485834;31;20100;-71
2022/01/29 08:46:30;;;;;;;14.82;3.62;;;;;;;2.90;57.26;101546.75;4485979;31;20361;-71
2022/01/29 08:48:57;;;;;;;5.18;2.47;;;;;;;2.96;57.44;101548.69;4485959;31;20080;-71
2022/01/29 08:51:24;;;;;;;13.85;4.62;;;;;;;2.84;57.78;101547.38;4485740;31;20099;-71
2022/01/29 08:53:51;;;;;;;6.47;2.67;;;;;;;2.97;57.91;101559.16;4485924;31;20447;-71
2022/01/29 08:56:19;;;;;;;17.05;3.92;;;;;;;2.92;57.38;101555.47;4485843;31;20154;-71
2022/01/29 08:58:46;;;;;;;4.75;2.12;;;;;;;2.97;56.15;101555.66;4485774;31;20088;-71
2022/01/29 09:01:13;;;;;;;10.00;3.17;;;;;;;3.10;55.56;101558.78;4485738;31;20092;-71
2022/01/29 09:03:41;;;;;;;7.97;2.03;;;;;;;3.09;54.46;101562.22;4485725;31;20095;-71
2022/01/29 09:06:09;;;;;;;12.32;3.40;;;;;;;3.22;54.67;101557.47;4485770;31;20217;-71
2022/01/29 09:08:38;;;;;;;7.78;2.55;;;;;;;3.12;54.16;101561.44;4485743;31;20097;-71
2022/01/29 09:11:06;;;;;;;6.57;2.10;;;;;;;3.28;54.26;101552.47;4485404;31;20104;-71
2022/01/29 09:13:34;;;;;;;11.90;2.87;;;;;;;3.50;51.44;101554.16;4485503;31;20200;-71
2022/01/29 09:16:01;;;;;;;6.32;2.05;;;;;;;3.58;52.12;101543.16;4485798;31;20084;-71
2022/01/29 09:18:28;;;;;;;2.72;1.12;;;;;;;3.71;51.71;101548.78;4485619;31;20130;-71
2022/01/29 09:20:56;;;;;;;10.50;2.10;;;;;;;3.79;50.38;101556.03;4485579;31;20648;-71
2022/01/29 09:23:23;;;;;;;8.55;2.50;;;;;;;3.82;50.14;101561.38;4485586;31;20121;-71
2022/01/29 09:25:50;;;;;;;6.15;2.30;;;;;;;3.84;49.68;101553.59;4485784;31;20084;-71
2022/01/29 09:28:17;;;;;;;25.70;4.50;;;;;;;3.94;50.11;101560.88;4485530;31;20432;-71
2022/01/29 09:30:45;;;;;;;7.28;2.92;;;;;;;4.00;50.10;101560.22;4485590;31;20100;-71
2022/01/29 09:33:12;;;;;;;6.32;2.33;;;;;;;4.14;50.26;101552.84;4485356;31;20449;-71
2022/01/29 09:35:40;;;;;;;17.92;6.20;;;;;;;4.27;49.90;101541.97;4485554;31;20099;-71
2022/01/29 09:38:08;;;;;;;13.38;2.60;;;;;;;4.48;50.05;101552.19;4485739;31;20119;-71
2022/01/29 09:40:37;;;;;;;7.97;1.30;;;;;;;4.43;49.59;101546.84;4485695;31;20127;-71
2022/01/29 09:43:07;;;;;;;4.55;1.20;;;;;;;4.29;50.06;101551.63;4485415;31;20096;-71
2022/01/29 09:45:34;;;;;;;3.95;1.52;;;;;;;4.37;50.33;101546.66;4485493;31;20111;-72
2022/01/29 09:48:02;;;;;;;6.15;1.75;;;;;;;4.41;50.61;101550.22;4485503;31;20134;-71
2022/01/29 09:50:31;;;;;;;8.02;2.25;;;;;;;4.59;50.97;101549.94;4485567;31;20116;-71
2022/01/29 09:53:00;;;;;;;9.35;2.03;;;;;;;4.88;50.50;101538.66;4485244;31;20457;-71
2022/01/29 09:55:27;;;;;;;6.82;2.25;;;;;;;4.73;51.33;101536.44;4485306;31;20079;-71
2022/01/29 09:57:56;;;;;;;9.40;2.55;;;;;;;4.62;51.46;101514.38;4485560;31;20144;-71
2022/01/29 10:00:24;;;;;;;14.32;3.78;;;;;;;4.63;52.16;101497.87;4485333;31;20100;-71
2022/01/29 10:03:19;;;;;;;15.48;3.95;;;;;;;4.96;51.50;101499.72;4485197;31;20457;-71
2022/01/29 10:05:50;;;;;;;11.00;3.72;;;;;;;5.00;52.35;101489.38;4483407;31;20157;-71
2022/01/29 10:08:19;;;;;;;5.18;2.75;;;;;;;5.33;52.42;101492.88;4485277;31;20695;-71
2022/01/29 10:10:48;;;;;;;12.52;3.75;;;;;;;5.41;52.08;101491.37;4485165;31;20096;-71
2022/01/29 10:13:21;;;;;;;9.98;2.50;;;;;;;5.02;53.42;101489.44;4485043;31;20423;-71
2022/01/29 10:15:50;;;;;;;9.10;3.20;;;;;;;4.92;54.65;101496.12;4485057;31;20127;-71
2022/01/29 10:18:23;;;;;;;9.25;3.20;;;;;;;4.98;55.02;101491.09;4485118;31;20157;-71
2022/01/29 10:20:51;;;;;;;8.93;2.60;;;;;;;4.73;56.08;101502.50;4485078;31;20163;-71
2022/01/29 10:23:29;;;;;;;10.32;2.47;;;;;;;4.84;56.08;101488.88;4485687;31;20103;-71
2022/01/29 10:25:56;;;;;;;13.40;2.78;;;;;;;4.81;55.53;101487.09;4486967;31;20085;-71
2022/01/29 10:28:24;;;;;;;14.85;2.90;;;;;;;4.81;55.85;101486.22;4486940;31;20084;-71
2022/01/29 10:30:51;;;;;;;9.30;3.28;;;;;;;4.69;56.51;101482.38;4486786;31;20092;-71
2022/01/29 10:33:35;;;;;;;9.35;2.42;;;;;;;4.70;56.52;101492.00;4486717;31;20130;-71
2022/01/29 10:36:06;;;;;;;9.93;2.35;;;;;;;4.71;56.28;101488.53;4486821;31;20119;-71
2022/01/29 10:38:40;;;;;;;10.93;2.40;;;;;;;4.55;56.62;101488.91;4486856;31;20123;-71
2022/01/29 10:41:26;;;;;;;6.40;2.00;;;;;;;4.38;57.58;101492.72;4486743;31;20092;-71
2022/01/29 10:44:19;;;;;;;13.20;2.53;;;;;;;4.32;57.50;101491.72;4486860;31;20163;-71
2022/01/29 10:46:47;;;;;;;11.07;3.50;;;;;;;4.45;57.85;101465.97;4486806;31;20511;-71
2022/01/29 10:49:27;;;;;;;4.68;2.53;;;;;;;4.85;57.12;101475.00;4486912;31;20088;-71
2022/01/29 10:52:14;;;;;;;13.60;2.30;;;;;;;5.02;56.53;101476.38;4486823;31;20119;-71
2022/01/29 10:54:44;;;;;;;11.55;2.42;;;;;;;5.50;55.08;101463.75;4486695;31;20096;-71
2022/01/29 10:57:14;;;;;;;17.80;2.70;;;;;;;5.63;55.05;101466.69;4486632;31;20489;-71
2022/01/29 10:59:54;;;;;;;8.43;2.17;;;;;;;5.81;54.63;101461.91;4486707;31;20149;-71
2022/01/29 11:02:27;;;;;;;12.90;2.90;;;;;;;6.16;54.06;101468.03;4486865;31;20149;-71
2022/01/29 11:04:55;;;;;;;13.65;3.28;;;;;;;6.27;53.60;101455.19;4486631;31;20118;-71
2022/01/29 11:07:27;;;;;;;11.25;2.75;;;;;;;6.05;54.50;101453.81;4486472;31;20470;-71
2022/01/29 11:09:56;;;;;;;13.23;2.85;;;;;;;5.70;55.44;101453.81;4486535;31;20089;-71
2022/01/29 11:12:27;;;;;;;9.25;2.80;;;;;;;5.58;55.70;101458.69;4486401;31;20436;-71
2022/01/29 11:15:00;;;;;;;13.00;3.75;;;;;;;5.08;57.30;101445.19;4486628;31;20096;-71
2022/01/29 11:17:29;;;;;;;12.30;3.17;;;;;;;5.20;57.56;101448.16;4486564;31;20143;-71
2022/01/29 11:19:57;;;;;;;9.50;3.00;;;;;;;5.20;57.69;101445.53;4486523;31;20511;-71
2022/01/29 11:22:27;;;;;;;10.13;3.55;;;;;;;5.46;57.21;101447.94;4486459;31;20100;-71
2022/01/29 11:24:58;;;;;;;13.98;3.00;;;;;;;5.61;57.00;101445.72;4486429;31;20092;-71
2022/01/29 11:27:28;;;;;;;13.20;3.90;;;;;;;5.83;56.55;101438.41;4486492;31;20067;-71
2022/01/29 11:30:21;;;;;;;12.77;2.83;;;;;;;6.12;56.07;101431.28;4486409;31;20478;-71
2022/01/29 11:32:54;;;;;;;13.70;3.65;;;;;;;5.53;57.35;101425.47;4483250;31;20112;-71
2022/01/29 11:35:29;;;;;;;20.58;3.65;;;;;;;5.36;57.96;101430.25;4485916;31;20096;-71
2022/01/29 11:38:02;;;;;;;10.38;2.90;;;;;;;5.38;57.45;101428.56;4471617;31;20083;-71
2022/01/29 11:40:37;;;;;;;10.88;3.97;;;;;;;5.35;57.66;101415.44;4486652;31;20481;-71
2022/01/29 11:43:14;;;;;;;15.57;4.75;;;;;;;5.26;58.16;101410.81;4486318;31;20108;-71
2022/01/29 11:45:50;;;;;;;14.65;4.22;;;;;;;5.21;58.70;101394.16;4486294;31;20100;-71
2022/01/29 11:48:31;;;;;;;;;;;;;;;5.34;58.50;101393.63;4486587;31;20287;-71
2022/01/29 11:51:07;;;;;;;14.30;3.12;;;;;;;5.63;57.41;101383.91;4486490;31;19979;-71
2022/01/29 11:53:43;;;;;;;14.87;3.60;;;;;;;5.93;57.06;101382.87;4485989;31;20425;-71
2022/01/29 11:56:30;;;;;;;16.43;3.23;;;;;;;5.77;57.06;101378.12;4486172;31;20572;-71